Santo Andre, Brazil
Current Conditions -  °F | °C
As of 9:00 AM on Monday 22 Dec 2014 (Local Time) from SBSP Reporting Station
Light Rain Light Rain  
Wind Chill: 73°   Ceiling: 1400
Heat Index: 73°   Visibility: 6mi
Dew Point: 66°   Wind: 18mph
Humidity: 78%   Direction: 340°NNW
Pressure: 29.97"   Gusts: 32mph
Location:  23.65°S, 46.53°W
Report Text: SBSP 221100Z 34016G28KT 9999 -RA BKN014 23/19 Q1015
Loading
Personal Weather Stations






























Interactive Weather Map New forecast layout! Learn more

10-Day Weather Forecast

Advertisements
Track Severe Weather on mobile